sensor_id;sensor_type;location;lat;lon;timestamp;P1;durP1;ratioP1;P2;durP2;ratioP2
6832;SDS011;3454;42.654;23.378;2022-07-06T00:02:24;13.27;;;11.93;;
6832;SDS011;3454;42.654;23.378;2022-07-06T00:04:50;14.07;;;12.27;;
6832;SDS011;3454;42.654;23.378;2022-07-06T00:07:15;12.77;;;11.50;;
6832;SDS011;3454;42.654;23.378;2022-07-06T00:09:41;13.30;;;11.15;;
6832;SDS011;3454;42.654;23.378;2022-07-06T00:12:07;12.30;;;11.00;;
6832;SDS011;3454;42.654;23.378;2022-07-06T00:14:32;12.02;;;10.73;;
6832;SDS011;3454;42.654;23.378;2022-07-06T00:16:58;12.60;;;11.32;;
6832;SDS011;3454;42.654;23.378;2022-07-06T00:19:23;12.60;;;11.25;;
6832;SDS011;3454;42.654;23.378;2022-07-06T00:21:49;13.40;;;11.40;;
6832;SDS011;3454;42.654;23.378;2022-07-06T00:24:14;14.27;;;11.85;;
6832;SDS011;3454;42.654;23.378;2022-07-06T00:26:42;12.88;;;11.57;;
6832;SDS011;3454;42.654;23.378;2022-07-06T00:29:08;14.00;;;12.30;;
6832;SDS011;3454;42.654;23.378;2022-07-06T00:31:33;15.75;;;12.93;;
6832;SDS011;3454;42.654;23.378;2022-07-06T00:33:59;13.98;;;12.57;;
6832;SDS011;3454;42.654;23.378;2022-07-06T00:36:24;18.17;;;12.52;;
6832;SDS011;3454;42.654;23.378;2022-07-06T00:38:50;12.55;;;11.35;;
6832;SDS011;3454;42.654;23.378;2022-07-06T00:41:22;14.48;;;12.40;;
6832;SDS011;3454;42.654;23.378;2022-07-06T00:43:51;17.70;;;12.52;;
6832;SDS011;3454;42.654;23.378;2022-07-06T00:46:22;14.98;;;12.15;;
6832;SDS011;3454;42.654;23.378;2022-07-06T00:48:50;14.30;;;10.93;;
6832;SDS011;3454;42.654;23.378;2022-07-06T00:51:15;15.05;;;11.63;;
6832;SDS011;3454;42.654;23.378;2022-07-06T00:53:41;12.27;;;11.00;;
6832;SDS011;3454;42.654;23.378;2022-07-06T00:56:08;12.63;;;11.30;;
6832;SDS011;3454;42.654;23.378;2022-07-06T00:58:34;14.13;;;11.15;;
6832;SDS011;3454;42.654;23.378;2022-07-06T01:01:01;14.50;;;11.98;;
6832;SDS011;3454;42.654;23.378;2022-07-06T01:03:26;16.35;;;12.45;;
6832;SDS011;3454;42.654;23.378;2022-07-06T01:05:52;17.80;;;11.70;;
6832;SDS011;3454;42.654;23.378;2022-07-06T01:08:18;13.02;;;11.63;;
6832;SDS011;3454;42.654;23.378;2022-07-06T01:10:43;13.85;;;12.40;;
6832;SDS011;3454;42.654;23.378;2022-07-06T01:13:09;13.48;;;12.07;;
6832;SDS011;3454;42.654;23.378;2022-07-06T01:15:35;14.20;;;11.68;;
6832;SDS011;3454;42.654;23.378;2022-07-06T01:18:00;16.27;;;12.43;;
6832;SDS011;3454;42.654;23.378;2022-07-06T01:20:26;14.27;;;11.57;;
6832;SDS011;3454;42.654;23.378;2022-07-06T01:22:53;16.48;;;11.63;;
6832;SDS011;3454;42.654;23.378;2022-07-06T01:25:20;13.20;;;11.80;;
6832;SDS011;3454;42.654;23.378;2022-07-06T01:27:46;15.38;;;12.20;;
6832;SDS011;3454;42.654;23.378;2022-07-06T01:30:13;14.73;;;13.15;;
6832;SDS011;3454;42.654;23.378;2022-07-06T01:32:41;14.23;;;12.40;;
6832;SDS011;3454;42.654;23.378;2022-07-06T01:35:08;15.70;;;13.40;;
6832;SDS011;3454;42.654;23.378;2022-07-06T01:37:35;15.40;;;13.80;;
6832;SDS011;3454;42.654;23.378;2022-07-06T01:40:02;24.13;;;20.30;;
6832;SDS011;3454;42.654;23.378;2022-07-06T01:42:29;19.13;;;15.95;;
6832;SDS011;3454;42.654;23.378;2022-07-06T01:44:56;22.80;;;16.60;;
6832;SDS011;3454;42.654;23.378;2022-07-06T01:47:21;22.38;;;18.08;;
6832;SDS011;3454;42.654;23.378;2022-07-06T01:49:47;24.40;;;18.95;;
6832;SDS011;3454;42.654;23.378;2022-07-06T01:52:13;24.83;;;22.05;;
6832;SDS011;3454;42.654;23.378;2022-07-06T01:54:39;24.05;;;21.40;;
6832;SDS011;3454;42.654;23.378;2022-07-06T01:57:04;26.08;;;21.85;;
6832;SDS011;3454;42.654;23.378;2022-07-06T01:59:30;27.27;;;24.02;;
6832;SDS011;3454;42.654;23.378;2022-07-06T02:01:56;30.83;;;24.15;;
6832;SDS011;3454;42.654;23.378;2022-07-06T02:04:21;29.80;;;22.30;;
6832;SDS011;3454;42.654;23.378;2022-07-06T02:06:47;28.23;;;22.30;;
6832;SDS011;3454;42.654;23.378;2022-07-06T02:09:12;26.15;;;19.27;;
6832;SDS011;3454;42.654;23.378;2022-07-06T02:11:38;23.35;;;17.33;;
6832;SDS011;3454;42.654;23.378;2022-07-06T02:14:03;16.70;;;14.90;;
6832;SDS011;3454;42.654;23.378;2022-07-06T02:16:29;16.23;;;13.85;;
6832;SDS011;3454;42.654;23.378;2022-07-06T02:18:54;23.70;;;16.27;;
6832;SDS011;3454;42.654;23.378;2022-07-06T02:21:20;16.02;;;13.27;;
6832;SDS011;3454;42.654;23.378;2022-07-06T02:23:45;14.23;;;11.98;;
6832;SDS011;3454;42.654;23.378;2022-07-06T02:26:10;16.55;;;13.88;;
6832;SDS011;3454;42.654;23.378;2022-07-06T02:28:36;15.18;;;12.73;;
6832;SDS011;3454;42.654;23.378;2022-07-06T02:31:01;15.90;;;13.25;;
6832;SDS011;3454;42.654;23.378;2022-07-06T02:33:27;13.95;;;11.90;;
6832;SDS011;3454;42.654;23.378;2022-07-06T02:35:52;13.98;;;11.18;;
6832;SDS011;3454;42.654;23.378;2022-07-06T02:38:18;13.23;;;11.02;;
6832;SDS011;3454;42.654;23.378;2022-07-06T02:40:44;13.10;;;11.73;;
6832;SDS011;3454;42.654;23.378;2022-07-06T02:43:09;11.73;;;10.07;;
6832;SDS011;3454;42.654;23.378;2022-07-06T02:45:35;12.68;;;10.98;;
6832;SDS011;3454;42.654;23.378;2022-07-06T02:48:01;13.55;;;10.27;;
6832;SDS011;3454;42.654;23.378;2022-07-06T02:50:26;11.55;;;10.35;;
6832;SDS011;3454;42.654;23.378;2022-07-06T02:52:52;13.07;;;10.95;;
6832;SDS011;3454;42.654;23.378;2022-07-06T02:55:17;13.18;;;10.45;;
6832;SDS011;3454;42.654;23.378;2022-07-06T02:57:43;11.45;;;10.27;;
6832;SDS011;3454;42.654;23.378;2022-07-06T03:00:09;13.63;;;12.15;;
6832;SDS011;3454;42.654;23.378;2022-07-06T03:02:35;17.20;;;11.13;;
6832;SDS011;3454;42.654;23.378;2022-07-06T03:05:01;13.98;;;12.57;;
6832;SDS011;3454;42.654;23.378;2022-07-06T03:07:27;16.05;;;12.82;;
6832;SDS011;3454;42.654;23.378;2022-07-06T03:09:53;13.38;;;11.95;;
6832;SDS011;3454;42.654;23.378;2022-07-06T03:12:18;13.02;;;11.63;;
6832;SDS011;3454;42.654;23.378;2022-07-06T03:14:44;15.02;;;12.63;;
6832;SDS011;3454;42.654;23.378;2022-07-06T03:17:09;14.60;;;13.10;;
6832;SDS011;3454;42.654;23.378;2022-07-06T03:19:35;14.30;;;12.85;;
6832;SDS011;3454;42.654;23.378;2022-07-06T03:22:00;13.15;;;11.82;;
6832;SDS011;3454;42.654;23.378;2022-07-06T03:24:26;16.90;;;12.43;;
6832;SDS011;3454;42.654;23.378;2022-07-06T03:26:51;15.23;;;12.45;;
6832;SDS011;3454;42.654;23.378;2022-07-06T03:29:17;12.90;;;11.18;;
6832;SDS011;3454;42.654;23.378;2022-07-06T03:31:42;14.82;;;11.82;;
6832;SDS011;3454;42.654;23.378;2022-07-06T03:34:08;14.60;;;11.35;;
6832;SDS011;3454;42.654;23.378;2022-07-06T03:36:33;14.45;;;11.55;;
6832;SDS011;3454;42.654;23.378;2022-07-06T03:39:00;12.70;;;11.40;;
6832;SDS011;3454;42.654;23.378;2022-07-06T03:41:25;10.77;;;9.68;;
6832;SDS011;3454;42.654;23.378;2022-07-06T03:43:50;12.95;;;11.55;;
6832;SDS011;3454;42.654;23.378;2022-07-06T03:46:16;11.35;;;9.63;;
6832;SDS011;3454;42.654;23.378;2022-07-06T03:48:41;13.95;;;10.50;;
6832;SDS011;3454;42.654;23.378;2022-07-06T03:51:07;11.80;;;9.93;;
6832;SDS011;3454;42.654;23.378;2022-07-06T03:53:32;14.25;;;9.35;;
6832;SDS011;3454;42.654;23.378;2022-07-06T03:55:58;11.00;;;9.30;;
6832;SDS011;3454;42.654;23.378;2022-07-06T03:58:42;10.95;;;8.98;;
6832;SDS011;3454;42.654;23.378;2022-07-06T04:01:07;15.48;;;12.32;;
6832;SDS011;3454;42.654;23.378;2022-07-06T04:03:33;37.15;;;19.33;;
6832;SDS011;3454;42.654;23.378;2022-07-06T04:05:58;28.95;;;17.90;;
6832;SDS011;3454;42.654;23.378;2022-07-06T04:08:24;21.80;;;14.27;;
6832;SDS011;3454;42.654;23.378;2022-07-06T04:10:49;18.30;;;12.55;;
6832;SDS011;3454;42.654;23.378;2022-07-06T04:13:15;25.50;;;15.70;;
6832;SDS011;3454;42.654;23.378;2022-07-06T04:15:41;14.13;;;11.00;;
6832;SDS011;3454;42.654;23.378;2022-07-06T04:18:06;17.80;;;11.77;;
6832;SDS011;3454;42.654;23.378;2022-07-06T04:20:32;11.43;;;8.50;;
6832;SDS011;3454;42.654;23.378;2022-07-06T04:22:57;9.82;;;8.75;;
6832;SDS011;3454;42.654;23.378;2022-07-06T04:25:23;10.73;;;8.98;;
6832;SDS011;3454;42.654;23.378;2022-07-06T04:27:49;10.80;;;8.40;;
6832;SDS011;3454;42.654;23.378;2022-07-06T04:30:14;8.82;;;7.93;;
6832;SDS011;3454;42.654;23.378;2022-07-06T04:32:41;9.95;;;7.85;;
6832;SDS011;3454;42.654;23.378;2022-07-06T04:35:06;7.70;;;6.95;;
6832;SDS011;3454;42.654;23.378;2022-07-06T04:37:32;11.27;;;7.25;;
6832;SDS011;3454;42.654;23.378;2022-07-06T04:39:58;9.95;;;7.13;;
6832;SDS011;3454;42.654;23.378;2022-07-06T04:42:23;10.80;;;7.95;;
6832;SDS011;3454;42.654;23.378;2022-07-06T04:44:49;8.98;;;7.28;;
6832;SDS011;3454;42.654;23.378;2022-07-06T04:47:16;13.57;;;7.78;;
6832;SDS011;3454;42.654;23.378;2022-07-06T04:49:42;7.00;;;6.30;;
6832;SDS011;3454;42.654;23.378;2022-07-06T04:52:07;9.70;;;7.47;;
6832;SDS011;3454;42.654;23.378;2022-07-06T04:54:33;14.18;;;7.28;;
6832;SDS011;3454;42.654;23.378;2022-07-06T04:56:58;16.13;;;8.82;;
6832;SDS011;3454;42.654;23.378;2022-07-06T04:59:24;13.20;;;8.70;;
6832;SDS011;3454;42.654;23.378;2022-07-06T05:01:49;11.45;;;9.02;;
6832;SDS011;3454;42.654;23.378;2022-07-06T05:04:14;12.40;;;8.75;;
6832;SDS011;3454;42.654;23.378;2022-07-06T05:06:43;14.85;;;9.02;;
6832;SDS011;3454;42.654;23.378;2022-07-06T05:09:09;11.50;;;8.57;;
6832;SDS011;3454;42.654;23.378;2022-07-06T05:11:34;11.35;;;8.85;;
6832;SDS011;3454;42.654;23.378;2022-07-06T05:14:00;15.52;;;9.32;;
6832;SDS011;3454;42.654;23.378;2022-07-06T05:16:26;10.82;;;9.60;;
6832;SDS011;3454;42.654;23.378;2022-07-06T05:18:52;17.13;;;11.50;;
6832;SDS011;3454;42.654;23.378;2022-07-06T05:21:17;18.90;;;12.05;;
6832;SDS011;3454;42.654;23.378;2022-07-06T05:23:42;12.45;;;11.15;;
6832;SDS011;3454;42.654;23.378;2022-07-06T05:26:08;13.07;;;10.48;;
6832;SDS011;3454;42.654;23.378;2022-07-06T05:28:33;14.05;;;12.05;;
6832;SDS011;3454;42.654;23.378;2022-07-06T05:30:59;12.80;;;10.98;;
6832;SDS011;3454;42.654;23.378;2022-07-06T05:33:27;15.57;;;11.38;;
6832;SDS011;3454;42.654;23.378;2022-07-06T05:35:52;14.20;;;11.32;;
6832;SDS011;3454;42.654;23.378;2022-07-06T05:38:18;14.55;;;11.80;;
6832;SDS011;3454;42.654;23.378;2022-07-06T05:40:44;15.95;;;11.00;;
6832;SDS011;3454;42.654;23.378;2022-07-06T05:43:10;18.17;;;10.60;;
6832;SDS011;3454;42.654;23.378;2022-07-06T05:45:35;13.38;;;10.85;;
6832;SDS011;3454;42.654;23.378;2022-07-06T05:48:01;14.88;;;10.00;;
6832;SDS011;3454;42.654;23.378;2022-07-06T05:50:45;13.57;;;10.32;;
6832;SDS011;3454;42.654;23.378;2022-07-06T05:53:10;12.40;;;9.90;;
6832;SDS011;3454;42.654;23.378;2022-07-06T05:55:36;12.70;;;9.77;;
6832;SDS011;3454;42.654;23.378;2022-07-06T05:58:02;11.85;;;9.52;;
6832;SDS011;3454;42.654;23.378;2022-07-06T06:00:28;10.18;;;9.18;;
6832;SDS011;3454;42.654;23.378;2022-07-06T06:02:54;12.05;;;9.52;;
6832;SDS011;3454;42.654;23.378;2022-07-06T06:05:20;13.15;;;9.90;;
6832;SDS011;3454;42.654;23.378;2022-07-06T06:07:46;10.85;;;9.65;;
6832;SDS011;3454;42.654;23.378;2022-07-06T06:10:13;12.57;;;10.20;;
6832;SDS011;3454;42.654;23.378;2022-07-06T06:12:40;12.40;;;10.35;;
6832;SDS011;3454;42.654;23.378;2022-07-06T06:15:07;14.18;;;10.75;;
6832;SDS011;3454;42.654;23.378;2022-07-06T06:17:33;14.05;;;10.57;;
6832;SDS011;3454;42.654;23.378;2022-07-06T06:20:01;15.70;;;11.57;;
6832;SDS011;3454;42.654;23.378;2022-07-06T06:22:28;13.43;;;10.30;;
6832;SDS011;3454;42.654;23.378;2022-07-06T06:24:53;12.38;;;11.02;;
6832;SDS011;3454;42.654;23.378;2022-07-06T06:27:19;17.48;;;11.30;;
6832;SDS011;3454;42.654;23.378;2022-07-06T06:29:45;12.77;;;10.82;;
6832;SDS011;3454;42.654;23.378;2022-07-06T06:32:11;15.48;;;11.48;;
6832;SDS011;3454;42.654;23.378;2022-07-06T06:34:37;14.55;;;10.73;;
6832;SDS011;3454;42.654;23.378;2022-07-06T06:37:03;17.17;;;11.35;;
6832;SDS011;3454;42.654;23.378;2022-07-06T06:39:29;16.77;;;11.43;;
6832;SDS011;3454;42.654;23.378;2022-07-06T06:41:54;14.10;;;11.05;;
6832;SDS011;3454;42.654;23.378;2022-07-06T06:44:20;13.70;;;11.13;;
6832;SDS011;3454;42.654;23.378;2022-07-06T06:46:48;14.82;;;12.15;;
6832;SDS011;3454;42.654;23.378;2022-07-06T06:49:14;15.50;;;11.27;;
6832;SDS011;3454;42.654;23.378;2022-07-06T06:51:39;15.80;;;11.43;;
6832;SDS011;3454;42.654;23.378;2022-07-06T06:54:05;14.77;;;12.68;;
6832;SDS011;3454;42.654;23.378;2022-07-06T06:56:30;12.50;;;11.20;;
6832;SDS011;3454;42.654;23.378;2022-07-06T06:58:55;14.82;;;12.05;;
6832;SDS011;3454;42.654;23.378;2022-07-06T07:01:21;14.05;;;11.75;;
6832;SDS011;3454;42.654;23.378;2022-07-06T07:03:46;17.02;;;11.43;;
6832;SDS011;3454;42.654;23.378;2022-07-06T07:06:12;15.05;;;12.02;;
6832;SDS011;3454;42.654;23.378;2022-07-06T07:08:38;14.48;;;11.80;;
6832;SDS011;3454;42.654;23.378;2022-07-06T07:11:03;13.48;;;11.48;;
6832;SDS011;3454;42.654;23.378;2022-07-06T07:13:29;15.88;;;12.38;;
6832;SDS011;3454;42.654;23.378;2022-07-06T07:15:54;14.23;;;12.07;;
6832;SDS011;3454;42.654;23.378;2022-07-06T07:18:19;14.25;;;12.20;;
6832;SDS011;3454;42.654;23.378;2022-07-06T07:20:45;14.77;;;12.10;;
6832;SDS011;3454;42.654;23.378;2022-07-06T07:23:10;13.60;;;11.82;;
6832;SDS011;3454;42.654;23.378;2022-07-06T07:25:36;15.18;;;11.70;;
6832;SDS011;3454;42.654;23.378;2022-07-06T07:28:03;14.88;;;10.93;;
6832;SDS011;3454;42.654;23.378;2022-07-06T07:30:29;14.18;;;11.38;;
6832;SDS011;3454;42.654;23.378;2022-07-06T07:32:55;13.75;;;10.95;;
6832;SDS011;3454;42.654;23.378;2022-07-06T07:35:21;15.05;;;12.52;;
6832;SDS011;3454;42.654;23.378;2022-07-06T07:37:46;16.27;;;12.48;;
6832;SDS011;3454;42.654;23.378;2022-07-06T07:40:12;12.73;;;11.43;;
6832;SDS011;3454;42.654;23.378;2022-07-06T07:42:37;16.83;;;12.98;;
6832;SDS011;3454;42.654;23.378;2022-07-06T07:45:05;14.68;;;11.63;;
6832;SDS011;3454;42.654;23.378;2022-07-06T07:47:32;13.90;;;12.40;;
6832;SDS011;3454;42.654;23.378;2022-07-06T07:49:57;14.75;;;12.55;;
6832;SDS011;3454;42.654;23.378;2022-07-06T07:52:23;14.75;;;12.50;;
6832;SDS011;3454;42.654;23.378;2022-07-06T07:54:48;13.88;;;12.32;;
6832;SDS011;3454;42.654;23.378;2022-07-06T07:57:14;18.90;;;12.75;;
6832;SDS011;3454;42.654;23.378;2022-07-06T07:59:39;14.57;;;12.75;;
6832;SDS011;3454;42.654;23.378;2022-07-06T08:02:05;14.90;;;12.77;;
6832;SDS011;3454;42.654;23.378;2022-07-06T08:04:31;13.88;;;12.25;;
6832;SDS011;3454;42.654;23.378;2022-07-06T08:06:56;18.30;;;13.27;;
6832;SDS011;3454;42.654;23.378;2022-07-06T08:09:22;18.65;;;13.50;;
6832;SDS011;3454;42.654;23.378;2022-07-06T08:11:47;16.35;;;13.43;;
6832;SDS011;3454;42.654;23.378;2022-07-06T08:14:13;16.42;;;12.70;;
6832;SDS011;3454;42.654;23.378;2022-07-06T08:16:39;13.07;;;11.38;;
6832;SDS011;3454;42.654;23.378;2022-07-06T08:19:05;18.05;;;11.40;;
6832;SDS011;3454;42.654;23.378;2022-07-06T08:21:30;13.85;;;12.35;;
6832;SDS011;3454;42.654;23.378;2022-07-06T08:23:56;12.77;;;11.48;;
6832;SDS011;3454;42.654;23.378;2022-07-06T08:26:21;13.38;;;11.98;;
6832;SDS011;3454;42.654;23.378;2022-07-06T08:28:48;16.25;;;12.35;;
6832;SDS011;3454;42.654;23.378;2022-07-06T08:31:13;13.50;;;10.75;;
6832;SDS011;3454;42.654;23.378;2022-07-06T08:33:38;15.30;;;11.52;;
6832;SDS011;3454;42.654;23.378;2022-07-06T08:36:04;14.27;;;12.10;;
6832;SDS011;3454;42.654;23.378;2022-07-06T08:38:30;15.27;;;12.25;;
6832;SDS011;3454;42.654;23.378;2022-07-06T08:40:55;13.80;;;11.10;;
6832;SDS011;3454;42.654;23.378;2022-07-06T08:43:21;13.23;;;11.10;;
6832;SDS011;3454;42.654;23.378;2022-07-06T08:45:48;11.95;;;10.10;;
6832;SDS011;3454;42.654;23.378;2022-07-06T08:48:18;11.77;;;10.52;;
6832;SDS011;3454;42.654;23.378;2022-07-06T08:50:47;11.15;;;10.00;;
6832;SDS011;3454;42.654;23.378;2022-07-06T08:53:13;11.80;;;10.57;;
6832;SDS011;3454;42.654;23.378;2022-07-06T08:55:39;10.68;;;9.68;;
6832;SDS011;3454;42.654;23.378;2022-07-06T08:58:05;11.77;;;10.55;;
6832;SDS011;3454;42.654;23.378;2022-07-06T09:00:32;11.48;;;10.32;;
6832;SDS011;3454;42.654;23.378;2022-07-06T09:02:58;12.70;;;10.73;;
6832;SDS011;3454;42.654;23.378;2022-07-06T09:05:24;12.68;;;11.32;;
6832;SDS011;3454;42.654;23.378;2022-07-06T09:07:56;12.80;;;10.60;;
6832;SDS011;3454;42.654;23.378;2022-07-06T09:10:23;14.82;;;11.80;;
6832;SDS011;3454;42.654;23.378;2022-07-06T09:12:48;13.40;;;10.82;;
6832;SDS011;3454;42.654;23.378;2022-07-06T09:15:14;13.35;;;10.93;;
6832;SDS011;3454;42.654;23.378;2022-07-06T09:17:41;14.88;;;10.60;;
6832;SDS011;3454;42.654;23.378;2022-07-06T09:20:08;14.65;;;11.52;;
6832;SDS011;3454;42.654;23.378;2022-07-06T09:22:34;13.27;;;11.82;;
6832;SDS011;3454;42.654;23.378;2022-07-06T09:25:01;12.15;;;10.88;;
6832;SDS011;3454;42.654;23.378;2022-07-06T09:27:30;11.82;;;10.38;;
6832;SDS011;3454;42.654;23.378;2022-07-06T09:29:59;15.63;;;11.93;;
6832;SDS011;3454;42.654;23.378;2022-07-06T09:32:26;15.25;;;11.55;;
6832;SDS011;3454;42.654;23.378;2022-07-06T09:34:51;17.95;;;13.27;;
6832;SDS011;3454;42.654;23.378;2022-07-06T09:37:16;14.50;;;11.05;;
6832;SDS011;3454;42.654;23.378;2022-07-06T09:39:43;12.75;;;11.43;;
6832;SDS011;3454;42.654;23.378;2022-07-06T09:42:09;10.95;;;9.82;;
6832;SDS011;3454;42.654;23.378;2022-07-06T09:44:39;13.25;;;11.95;;
6832;SDS011;3454;42.654;23.378;2022-07-06T09:47:07;12.40;;;11.07;;
6832;SDS011;3454;42.654;23.378;2022-07-06T09:49:34;11.85;;;10.63;;
6832;SDS011;3454;42.654;23.378;2022-07-06T09:52:02;12.27;;;11.00;;
6832;SDS011;3454;42.654;23.378;2022-07-06T09:54:29;14.20;;;10.90;;
6832;SDS011;3454;42.654;23.378;2022-07-06T09:56:55;15.07;;;12.07;;
6832;SDS011;3454;42.654;23.378;2022-07-06T09:59:22;13.27;;;11.98;;
6832;SDS011;3454;42.654;23.378;2022-07-06T10:01:55;16.73;;;12.20;;
6832;SDS011;3454;42.654;23.378;2022-07-06T10:04:21;13.65;;;12.30;;
6832;SDS011;3454;42.654;23.378;2022-07-06T10:06:48;16.15;;;12.23;;
6832;SDS011;3454;42.654;23.378;2022-07-06T10:09:14;12.98;;;11.30;;
6832;SDS011;3454;42.654;23.378;2022-07-06T10:11:42;14.15;;;12.55;;
6832;SDS011;3454;42.654;23.378;2022-07-06T10:14:10;14.65;;;12.85;;
6832;SDS011;3454;42.654;23.378;2022-07-06T10:16:39;16.63;;;13.75;;
6832;SDS011;3454;42.654;23.378;2022-07-06T10:19:08;13.82;;;11.60;;
6832;SDS011;3454;42.654;23.378;2022-07-06T10:21:35;13.75;;;12.35;;
6832;SDS011;3454;42.654;23.378;2022-07-06T10:24:02;13.05;;;11.75;;
6832;SDS011;3454;42.654;23.378;2022-07-06T10:26:29;14.63;;;12.93;;
6832;SDS011;3454;42.654;23.378;2022-07-06T10:28:57;12.90;;;11.68;;
6832;SDS011;3454;42.654;23.378;2022-07-06T10:31:24;13.07;;;11.63;;
6832;SDS011;3454;42.654;23.378;2022-07-06T10:33:51;13.75;;;12.40;;
6832;SDS011;3454;42.654;23.378;2022-07-06T10:36:18;17.02;;;12.82;;
6832;SDS011;3454;42.654;23.378;2022-07-06T10:38:46;14.02;;;12.55;;
6832;SDS011;3454;42.654;23.378;2022-07-06T10:41:15;19.90;;;14.13;;
6832;SDS011;3454;42.654;23.378;2022-07-06T10:43:45;18.65;;;13.30;;
6832;SDS011;3454;42.654;23.378;2022-07-06T10:46:11;12.77;;;11.57;;
6832;SDS011;3454;42.654;23.378;2022-07-06T10:48:39;14.38;;;12.68;;
6832;SDS011;3454;42.654;23.378;2022-07-06T10:51:06;13.55;;;12.15;;
6832;SDS011;3454;42.654;23.378;2022-07-06T10:53:34;14.05;;;12.55;;
6832;SDS011;3454;42.654;23.378;2022-07-06T11:01:01;13.82;;;11.73;;
6832;SDS011;3454;42.654;23.378;2022-07-06T11:03:30;16.75;;;12.50;;
6832;SDS011;3454;42.654;23.378;2022-07-06T11:08:55;13.23;;;11.85;;
6832;SDS011;3454;42.654;23.378;2022-07-06T11:16:38;12.38;;;11.18;;
6832;SDS011;3454;42.654;23.378;2022-07-06T11:19:19;13.63;;;12.02;;
6832;SDS011;3454;42.654;23.378;2022-07-06T11:21:58;14.88;;;13.32;;
6832;SDS011;3454;42.654;23.378;2022-07-06T11:24:32;13.68;;;12.25;;
6832;SDS011;3454;42.654;23.378;2022-07-06T11:26:59;14.68;;;13.27;;
6832;SDS011;3454;42.654;23.378;2022-07-06T11:29:26;13.52;;;12.13;;
6832;SDS011;3454;42.654;23.378;2022-07-06T11:31:54;13.65;;;12.25;;
6832;SDS011;3454;42.654;23.378;2022-07-06T11:34:29;14.93;;;13.38;;
6832;SDS011;3454;42.654;23.378;2022-07-06T11:37:00;12.63;;;11.35;;
6832;SDS011;3454;42.654;23.378;2022-07-06T11:39:31;13.70;;;12.30;;
6832;SDS011;3454;42.654;23.378;2022-07-06T11:41:58;12.70;;;11.38;;
6832;SDS011;3454;42.654;23.378;2022-07-06T11:44:25;13.68;;;12.38;;
6832;SDS011;3454;42.654;23.378;2022-07-06T11:46:51;13.63;;;12.40;;
6832;SDS011;3454;42.654;23.378;2022-07-06T11:49:19;13.70;;;12.40;;
6832;SDS011;3454;42.654;23.378;2022-07-06T11:51:45;13.80;;;12.30;;
6832;SDS011;3454;42.654;23.378;2022-07-06T11:54:13;12.98;;;11.70;;
6832;SDS011;3454;42.654;23.378;2022-07-06T11:59:11;13.95;;;12.55;;
6832;SDS011;3454;42.654;23.378;2022-07-06T12:01:36;14.00;;;11.25;;
6832;SDS011;3454;42.654;23.378;2022-07-06T12:04:06;13.05;;;11.82;;
6832;SDS011;3454;42.654;23.378;2022-07-06T12:06:32;12.48;;;11.38;;
6832;SDS011;3454;42.654;23.378;2022-07-06T12:08:59;11.07;;;10.05;;
6832;SDS011;3454;42.654;23.378;2022-07-06T12:11:29;12.05;;;10.90;;
6832;SDS011;3454;42.654;23.378;2022-07-06T12:13:56;10.38;;;9.30;;
6832;SDS011;3454;42.654;23.378;2022-07-06T12:16:30;11.13;;;10.13;;
6832;SDS011;3454;42.654;23.378;2022-07-06T12:18:59;12.02;;;10.93;;
6832;SDS011;3454;42.654;23.378;2022-07-06T12:21:25;11.95;;;10.77;;
6832;SDS011;3454;42.654;23.378;2022-07-06T12:23:51;13.23;;;10.73;;
6832;SDS011;3454;42.654;23.378;2022-07-06T12:26:18;16.25;;;12.88;;
6832;SDS011;3454;42.654;23.378;2022-07-06T12:29:03;11.52;;;10.43;;
6832;SDS011;3454;42.654;23.378;2022-07-06T12:31:42;11.38;;;10.38;;
6832;SDS011;3454;42.654;23.378;2022-07-06T12:34:13;10.75;;;9.75;;
6832;SDS011;3454;42.654;23.378;2022-07-06T12:36:47;12.38;;;9.48;;
6832;SDS011;3454;42.654;23.378;2022-07-06T12:39:15;11.43;;;10.20;;
6832;SDS011;3454;42.654;23.378;2022-07-06T12:41:52;11.75;;;10.65;;
6832;SDS011;3454;42.654;23.378;2022-07-06T12:44:23;11.13;;;10.13;;
6832;SDS011;3454;42.654;23.378;2022-07-06T12:46:50;12.75;;;10.07;;
6832;SDS011;3454;42.654;23.378;2022-07-06T12:49:26;10.93;;;9.82;;
6832;SDS011;3454;42.654;23.378;2022-07-06T12:51:52;10.00;;;9.07;;
6832;SDS011;3454;42.654;23.378;2022-07-06T12:54:24;12.30;;;11.00;;
6832;SDS011;3454;42.654;23.378;2022-07-06T12:59:38;9.05;;;8.15;;
6832;SDS011;3454;42.654;23.378;2022-07-06T13:02:24;9.27;;;8.38;;
6832;SDS011;3454;42.654;23.378;2022-07-06T13:04:58;9.25;;;8.25;;
6832;SDS011;3454;42.654;23.378;2022-07-06T13:07:24;9.77;;;7.50;;
6832;SDS011;3454;42.654;23.378;2022-07-06T13:09:50;7.70;;;6.65;;
6832;SDS011;3454;42.654;23.378;2022-07-06T13:12:16;7.68;;;6.93;;
6832;SDS011;3454;42.654;23.378;2022-07-06T13:14:41;8.55;;;7.85;;
6832;SDS011;3454;42.654;23.378;2022-07-06T13:17:06;8.43;;;7.43;;
6832;SDS011;3454;42.654;23.378;2022-07-06T13:19:32;7.28;;;6.68;;
6832;SDS011;3454;42.654;23.378;2022-07-06T13:21:58;10.27;;;6.40;;
6832;SDS011;3454;42.654;23.378;2022-07-06T13:24:23;5.72;;;5.20;;
6832;SDS011;3454;42.654;23.378;2022-07-06T13:26:48;6.20;;;5.70;;
6832;SDS011;3454;42.654;23.378;2022-07-06T13:29:14;6.60;;;6.10;;
6832;SDS011;3454;42.654;23.378;2022-07-06T13:31:40;6.07;;;5.47;;
6832;SDS011;3454;42.654;23.378;2022-07-06T13:34:06;5.53;;;4.78;;
6832;SDS011;3454;42.654;23.378;2022-07-06T13:36:33;6.13;;;4.90;;
6832;SDS011;3454;42.654;23.378;2022-07-06T13:38:59;5.53;;;4.95;;
6832;SDS011;3454;42.654;23.378;2022-07-06T13:41:24;5.53;;;5.03;;
6832;SDS011;3454;42.654;23.378;2022-07-06T13:43:50;4.70;;;4.30;;
6832;SDS011;3454;42.654;23.378;2022-07-06T13:46:15;5.18;;;4.13;;
6832;SDS011;3454;42.654;23.378;2022-07-06T13:48:42;3.55;;;3.35;;
6832;SDS011;3454;42.654;23.378;2022-07-06T13:51:08;4.55;;;4.15;;
6832;SDS011;3454;42.654;23.378;2022-07-06T13:53:33;4.65;;;4.25;;
6832;SDS011;3454;42.654;23.378;2022-07-06T13:55:59;4.70;;;4.22;;
6832;SDS011;3454;42.654;23.378;2022-07-06T13:58:25;3.17;;;2.80;;
6832;SDS011;3454;42.654;23.378;2022-07-06T14:00:51;3.20;;;2.90;;
6832;SDS011;3454;42.654;23.378;2022-07-06T14:03:16;4.15;;;3.03;;
6832;SDS011;3454;42.654;23.378;2022-07-06T14:05:42;3.25;;;2.78;;
6832;SDS011;3454;42.654;23.378;2022-07-06T14:08:07;3.20;;;2.90;;
6832;SDS011;3454;42.654;23.378;2022-07-06T14:10:33;3.75;;;3.05;;
6832;SDS011;3454;42.654;23.378;2022-07-06T14:12:58;2.60;;;2.50;;
6832;SDS011;3454;42.654;23.378;2022-07-06T14:15:24;4.07;;;2.85;;
6832;SDS011;3454;42.654;23.378;2022-07-06T14:17:49;2.80;;;2.60;;
6832;SDS011;3454;42.654;23.378;2022-07-06T14:20:15;2.85;;;2.58;;
6832;SDS011;3454;42.654;23.378;2022-07-06T14:22:41;2.53;;;2.30;;
6832;SDS011;3454;42.654;23.378;2022-07-06T14:25:07;3.90;;;2.30;;
6832;SDS011;3454;42.654;23.378;2022-07-06T14:27:33;2.40;;;2.20;;
6832;SDS011;3454;42.654;23.378;2022-07-06T14:29:59;2.53;;;2.33;;
6832;SDS011;3454;42.654;23.378;2022-07-06T14:32:24;3.67;;;2.30;;
6832;SDS011;3454;42.654;23.378;2022-07-06T14:34:50;5.03;;;3.63;;
6832;SDS011;3454;42.654;23.378;2022-07-06T14:37:15;3.55;;;3.25;;
6832;SDS011;3454;42.654;23.378;2022-07-06T14:39:41;6.72;;;2.80;;
6832;SDS011;3454;42.654;23.378;2022-07-06T14:42:07;2.83;;;2.20;;
6832;SDS011;3454;42.654;23.378;2022-07-06T14:44:32;3.03;;;2.20;;
6832;SDS011;3454;42.654;23.378;2022-07-06T14:46:58;3.53;;;2.60;;
6832;SDS011;3454;42.654;23.378;2022-07-06T14:49:23;3.72;;;2.42;;
6832;SDS011;3454;42.654;23.378;2022-07-06T14:51:49;3.15;;;1.90;;
6832;SDS011;3454;42.654;23.378;2022-07-06T14:54:14;4.32;;;2.28;;
6832;SDS011;3454;42.654;23.378;2022-07-06T14:56:40;2.67;;;2.15;;